sensor_id;sensor_type;location;lat;lon;timestamp;temperature;humidity
20526;DHT22;10421;49.142;9.232;2024-01-30T00:00:24;7.70;92.40
20526;DHT22;10421;49.142;9.232;2024-01-30T00:02:51;7.70;92.40
20526;DHT22;10421;49.142;9.232;2024-01-30T00:05:19;7.80;92.50
20526;DHT22;10421;49.142;9.232;2024-01-30T00:07:46;7.70;92.40
20526;DHT22;10421;49.142;9.232;2024-01-30T00:10:13;7.70;92.30
20526;DHT22;10421;49.142;9.232;2024-01-30T00:12:40;7.70;92.30
20526;DHT22;10421;49.142;9.232;2024-01-30T00:15:07;7.70;92.30
20526;DHT22;10421;49.142;9.232;2024-01-30T00:17:35;7.70;92.30
20526;DHT22;10421;49.142;9.232;2024-01-30T00:20:02;7.70;92.40
20526;DHT22;10421;49.142;9.232;2024-01-30T00:22:32;7.60;92.30
20526;DHT22;10421;49.142;9.232;2024-01-30T00:24:58;7.50;92.30
20526;DHT22;10421;49.142;9.232;2024-01-30T00:27:25;7.50;92.40
20526;DHT22;10421;49.142;9.232;2024-01-30T00:29:52;7.60;92.40
20526;DHT22;10421;49.142;9.232;2024-01-30T00:32:19;7.60;92.40
20526;DHT22;10421;49.142;9.232;2024-01-30T00:34:46;7.50;92.40
20526;DHT22;10421;49.142;9.232;2024-01-30T00:37:13;7.60;92.50
20526;DHT22;10421;49.142;9.232;2024-01-30T00:39:41;7.60;92.40
20526;DHT22;10421;49.142;9.232;2024-01-30T00:42:07;7.50;92.40
20526;DHT22;10421;49.142;9.232;2024-01-30T00:44:35;7.50;92.50
20526;DHT22;10421;49.142;9.232;2024-01-30T00:47:02;7.40;92.60
20526;DHT22;10421;49.142;9.232;2024-01-30T00:49:29;7.40;92.70
20526;DHT22;10421;49.142;9.232;2024-01-30T00:51:56;7.40;92.70
20526;DHT22;10421;49.142;9.232;2024-01-30T00:54:23;7.30;92.80
20526;DHT22;10421;49.142;9.232;2024-01-30T00:56:51;7.30;92.70
20526;DHT22;10421;49.142;9.232;2024-01-30T00:59:17;7.30;92.70
20526;DHT22;10421;49.142;9.232;2024-01-30T01:01:44;7.20;92.80
20526;DHT22;10421;49.142;9.232;2024-01-30T01:04:11;7.20;92.90
20526;DHT22;10421;49.142;9.232;2024-01-30T01:06:38;7.20;93.10
20526;DHT22;10421;49.142;9.232;2024-01-30T01:09:05;7.20;93.10
20526;DHT22;10421;49.142;9.232;2024-01-30T01:11:32;7.30;93.00
20526;DHT22;10421;49.142;9.232;2024-01-30T01:14:00;7.30;92.90
20526;DHT22;10421;49.142;9.232;2024-01-30T01:16:27;7.40;92.80
20526;DHT22;10421;49.142;9.232;2024-01-30T01:18:54;7.30;92.70
20526;DHT22;10421;49.142;9.232;2024-01-30T01:21:20;7.20;92.60
20526;DHT22;10421;49.142;9.232;2024-01-30T01:23:47;7.20;92.70
20526;DHT22;10421;49.142;9.232;2024-01-30T01:26:14;7.20;92.90
20526;DHT22;10421;49.142;9.232;2024-01-30T01:28:40;7.10;93.00
20526;DHT22;10421;49.142;9.232;2024-01-30T01:31:09;7.20;93.00
20526;DHT22;10421;49.142;9.232;2024-01-30T01:33:35;7.20;93.00
20526;DHT22;10421;49.142;9.232;2024-01-30T01:36:03;7.30;93.00
20526;DHT22;10421;49.142;9.232;2024-01-30T01:38:30;7.30;93.00
20526;DHT22;10421;49.142;9.232;2024-01-30T01:40:57;7.30;92.80
20526;DHT22;10421;49.142;9.232;2024-01-30T01:43:23;7.30;92.70
20526;DHT22;10421;49.142;9.232;2024-01-30T01:45:50;7.20;92.80
20526;DHT22;10421;49.142;9.232;2024-01-30T01:48:18;7.20;92.80
20526;DHT22;10421;49.142;9.232;2024-01-30T01:50:45;7.10;93.00
20526;DHT22;10421;49.142;9.232;2024-01-30T01:53:12;7.00;93.10
20526;DHT22;10421;49.142;9.232;2024-01-30T01:55:39;7.00;93.00
20526;DHT22;10421;49.142;9.232;2024-01-30T01:58:07;6.90;93.00
20526;DHT22;10421;49.142;9.232;2024-01-30T02:00:34;6.90;93.10
20526;DHT22;10421;49.142;9.232;2024-01-30T02:03:06;6.90;93.10
20526;DHT22;10421;49.142;9.232;2024-01-30T02:05:34;6.90;93.20
20526;DHT22;10421;49.142;9.232;2024-01-30T02:08:01;6.90;93.20
20526;DHT22;10421;49.142;9.232;2024-01-30T02:10:28;6.90;93.30
20526;DHT22;10421;49.142;9.232;2024-01-30T02:12:55;6.90;93.40
20526;DHT22;10421;49.142;9.232;2024-01-30T02:15:22;6.90;93.50
20526;DHT22;10421;49.142;9.232;2024-01-30T02:17:49;6.90;93.50
20526;DHT22;10421;49.142;9.232;2024-01-30T02:20:15;6.80;93.60
20526;DHT22;10421;49.142;9.232;2024-01-30T02:22:43;6.80;93.60
20526;DHT22;10421;49.142;9.232;2024-01-30T02:25:11;6.80;93.80
20526;DHT22;10421;49.142;9.232;2024-01-30T02:27:37;6.80;93.80
20526;DHT22;10421;49.142;9.232;2024-01-30T02:30:06;6.80;93.90
20526;DHT22;10421;49.142;9.232;2024-01-30T02:32:32;6.80;93.90
20526;DHT22;10421;49.142;9.232;2024-01-30T02:34:59;6.70;93.90
20526;DHT22;10421;49.142;9.232;2024-01-30T02:37:26;6.60;94.00
20526;DHT22;10421;49.142;9.232;2024-01-30T02:39:54;6.60;94.10
20526;DHT22;10421;49.142;9.232;2024-01-30T02:42:21;6.70;94.00
20526;DHT22;10421;49.142;9.232;2024-01-30T02:44:47;6.70;93.90
20526;DHT22;10421;49.142;9.232;2024-01-30T02:47:14;6.70;93.90
20526;DHT22;10421;49.142;9.232;2024-01-30T02:49:41;6.70;93.90
20526;DHT22;10421;49.142;9.232;2024-01-30T02:52:07;6.70;93.90
20526;DHT22;10421;49.142;9.232;2024-01-30T02:54:34;6.70;93.90
20526;DHT22;10421;49.142;9.232;2024-01-30T02:57:02;6.70;93.80
20526;DHT22;10421;49.142;9.232;2024-01-30T02:59:29;6.60;93.80
20526;DHT22;10421;49.142;9.232;2024-01-30T03:01:58;6.60;94.00
20526;DHT22;10421;49.142;9.232;2024-01-30T03:04:25;6.60;94.00
20526;DHT22;10421;49.142;9.232;2024-01-30T03:06:52;6.50;94.00
20526;DHT22;10421;49.142;9.232;2024-01-30T03:09:18;6.50;93.90
20526;DHT22;10421;49.142;9.232;2024-01-30T03:11:45;6.50;94.10
20526;DHT22;10421;49.142;9.232;2024-01-30T03:14:13;6.50;94.10
20526;DHT22;10421;49.142;9.232;2024-01-30T03:16:40;6.50;94.10
20526;DHT22;10421;49.142;9.232;2024-01-30T03:19:07;6.60;94.10
20526;DHT22;10421;49.142;9.232;2024-01-30T03:21:34;6.50;94.10
20526;DHT22;10421;49.142;9.232;2024-01-30T03:24:01;6.60;94.10
20526;DHT22;10421;49.142;9.232;2024-01-30T03:26:28;6.40;94.00
20526;DHT22;10421;49.142;9.232;2024-01-30T03:28:55;6.40;94.00
20526;DHT22;10421;49.142;9.232;2024-01-30T03:31:23;6.40;94.30
20526;DHT22;10421;49.142;9.232;2024-01-30T03:33:49;6.40;94.00
20526;DHT22;10421;49.142;9.232;2024-01-30T03:36:16;6.40;94.20
20526;DHT22;10421;49.142;9.232;2024-01-30T03:38:43;6.30;94.20
20526;DHT22;10421;49.142;9.232;2024-01-30T03:41:10;6.30;94.30
20526;DHT22;10421;49.142;9.232;2024-01-30T03:43:37;6.30;94.50
20526;DHT22;10421;49.142;9.232;2024-01-30T03:46:04;6.30;94.60
20526;DHT22;10421;49.142;9.232;2024-01-30T03:48:32;6.20;94.60
20526;DHT22;10421;49.142;9.232;2024-01-30T03:50:58;6.20;94.50
20526;DHT22;10421;49.142;9.232;2024-01-30T03:53:26;6.20;94.50
20526;DHT22;10421;49.142;9.232;2024-01-30T03:55:52;6.20;94.50
20526;DHT22;10421;49.142;9.232;2024-01-30T03:58:19;6.20;94.50
20526;DHT22;10421;49.142;9.232;2024-01-30T04:00:46;6.20;94.50
20526;DHT22;10421;49.142;9.232;2024-01-30T04:03:14;6.20;94.60
20526;DHT22;10421;49.142;9.232;2024-01-30T04:05:42;6.20;94.60
20526;DHT22;10421;49.142;9.232;2024-01-30T04:08:09;6.20;94.60
20526;DHT22;10421;49.142;9.232;2024-01-30T04:10:35;6.20;94.60
20526;DHT22;10421;49.142;9.232;2024-01-30T04:13:02;6.20;94.60
20526;DHT22;10421;49.142;9.232;2024-01-30T04:15:29;6.20;94.60
20526;DHT22;10421;49.142;9.232;2024-01-30T04:17:57;6.10;94.60
20526;DHT22;10421;49.142;9.232;2024-01-30T04:20:24;6.10;94.70
20526;DHT22;10421;49.142;9.232;2024-01-30T04:22:52;6.10;94.60
20526;DHT22;10421;49.142;9.232;2024-01-30T04:25:19;6.10;94.70
20526;DHT22;10421;49.142;9.232;2024-01-30T04:27:46;6.10;94.80
20526;DHT22;10421;49.142;9.232;2024-01-30T04:30:13;6.10;94.80
20526;DHT22;10421;49.142;9.232;2024-01-30T04:32:40;6.10;94.80
20526;DHT22;10421;49.142;9.232;2024-01-30T04:35:07;6.10;94.70
20526;DHT22;10421;49.142;9.232;2024-01-30T04:37:34;6.10;95.00
20526;DHT22;10421;49.142;9.232;2024-01-30T04:40:02;6.10;94.70
20526;DHT22;10421;49.142;9.232;2024-01-30T04:42:29;6.20;94.80
20526;DHT22;10421;49.142;9.232;2024-01-30T04:44:55;6.20;94.60
20526;DHT22;10421;49.142;9.232;2024-01-30T04:47:22;6.20;94.50
20526;DHT22;10421;49.142;9.232;2024-01-30T04:49:51;6.10;94.70
20526;DHT22;10421;49.142;9.232;2024-01-30T04:52:18;6.10;94.60
20526;DHT22;10421;49.142;9.232;2024-01-30T04:54:44;6.00;94.50
20526;DHT22;10421;49.142;9.232;2024-01-30T04:57:12;6.00;94.60
20526;DHT22;10421;49.142;9.232;2024-01-30T04:59:39;6.00;94.90
20526;DHT22;10421;49.142;9.232;2024-01-30T05:02:06;6.00;94.70
20526;DHT22;10421;49.142;9.232;2024-01-30T05:04:33;6.00;94.70
20526;DHT22;10421;49.142;9.232;2024-01-30T05:07:00;6.00;94.70
20526;DHT22;10421;49.142;9.232;2024-01-30T05:09:27;6.00;94.80
20526;DHT22;10421;49.142;9.232;2024-01-30T05:11:53;5.90;94.90
20526;DHT22;10421;49.142;9.232;2024-01-30T05:14:21;6.00;94.90
20526;DHT22;10421;49.142;9.232;2024-01-30T05:16:48;5.90;95.00
20526;DHT22;10421;49.142;9.232;2024-01-30T05:19:15;5.90;95.00
20526;DHT22;10421;49.142;9.232;2024-01-30T05:21:42;5.90;95.00
20526;DHT22;10421;49.142;9.232;2024-01-30T05:24:09;5.80;95.10
20526;DHT22;10421;49.142;9.232;2024-01-30T05:26:36;5.80;95.00
20526;DHT22;10421;49.142;9.232;2024-01-30T05:29:03;5.80;95.00
20526;DHT22;10421;49.142;9.232;2024-01-30T05:31:31;5.90;94.90
20526;DHT22;10421;49.142;9.232;2024-01-30T05:33:58;5.90;94.90
20526;DHT22;10421;49.142;9.232;2024-01-30T05:36:24;5.80;95.00
20526;DHT22;10421;49.142;9.232;2024-01-30T05:38:51;5.80;95.10
20526;DHT22;10421;49.142;9.232;2024-01-30T05:41:18;5.80;95.20
20526;DHT22;10421;49.142;9.232;2024-01-30T05:43:44;5.80;95.20
20526;DHT22;10421;49.142;9.232;2024-01-30T05:46:11;5.80;95.40
20526;DHT22;10421;49.142;9.232;2024-01-30T05:48:39;5.90;95.40
20526;DHT22;10421;49.142;9.232;2024-01-30T05:51:07;5.90;95.40
20526;DHT22;10421;49.142;9.232;2024-01-30T05:53:34;5.90;95.40
20526;DHT22;10421;49.142;9.232;2024-01-30T05:56:01;5.90;95.20
20526;DHT22;10421;49.142;9.232;2024-01-30T05:58:28;5.90;95.20
20526;DHT22;10421;49.142;9.232;2024-01-30T06:00:56;5.90;95.00
20526;DHT22;10421;49.142;9.232;2024-01-30T06:03:23;5.90;95.00
20526;DHT22;10421;49.142;9.232;2024-01-30T06:05:51;5.90;95.10
20526;DHT22;10421;49.142;9.232;2024-01-30T06:08:18;5.90;95.00
20526;DHT22;10421;49.142;9.232;2024-01-30T06:10:45;5.80;95.10
20526;DHT22;10421;49.142;9.232;2024-01-30T06:13:13;5.80;95.30
20526;DHT22;10421;49.142;9.232;2024-01-30T06:15:40;5.70;95.40
20526;DHT22;10421;49.142;9.232;2024-01-30T06:18:06;5.70;95.40
20526;DHT22;10421;49.142;9.232;2024-01-30T06:20:33;5.70;95.50
20526;DHT22;10421;49.142;9.232;2024-01-30T06:23:02;5.80;95.40
20526;DHT22;10421;49.142;9.232;2024-01-30T06:25:28;5.80;95.30
20526;DHT22;10421;49.142;9.232;2024-01-30T06:27:55;5.80;95.30
20526;DHT22;10421;49.142;9.232;2024-01-30T06:30:22;5.80;95.30
20526;DHT22;10421;49.142;9.232;2024-01-30T06:32:49;5.80;95.30
20526;DHT22;10421;49.142;9.232;2024-01-30T06:35:15;5.80;95.40
20526;DHT22;10421;49.142;9.232;2024-01-30T06:37:43;5.80;95.30
20526;DHT22;10421;49.142;9.232;2024-01-30T06:40:12;5.80;95.40
20526;DHT22;10421;49.142;9.232;2024-01-30T06:42:38;5.70;95.40
20526;DHT22;10421;49.142;9.232;2024-01-30T06:45:06;5.70;95.60
20526;DHT22;10421;49.142;9.232;2024-01-30T06:47:33;5.70;95.70
20526;DHT22;10421;49.142;9.232;2024-01-30T06:50:00;5.70;95.70
20526;DHT22;10421;49.142;9.232;2024-01-30T06:52:28;5.80;95.80
20526;DHT22;10421;49.142;9.232;2024-01-30T06:54:55;5.80;95.90
20526;DHT22;10421;49.142;9.232;2024-01-30T06:57:23;5.80;95.90
20526;DHT22;10421;49.142;9.232;2024-01-30T06:59:50;5.80;95.90
20526;DHT22;10421;49.142;9.232;2024-01-30T07:02:17;5.80;95.90
20526;DHT22;10421;49.142;9.232;2024-01-30T07:04:43;5.80;95.90
20526;DHT22;10421;49.142;9.232;2024-01-30T07:07:10;5.80;95.90
20526;DHT22;10421;49.142;9.232;2024-01-30T07:09:38;5.80;95.90
20526;DHT22;10421;49.142;9.232;2024-01-30T07:12:05;5.90;95.90
20526;DHT22;10421;49.142;9.232;2024-01-30T07:14:38;5.90;95.70
20526;DHT22;10421;49.142;9.232;2024-01-30T07:17:07;5.90;95.70
20526;DHT22;10421;49.142;9.232;2024-01-30T07:19:34;5.90;95.70
20526;DHT22;10421;49.142;9.232;2024-01-30T07:22:01;5.90;95.70
20526;DHT22;10421;49.142;9.232;2024-01-30T07:24:27;5.80;95.70
20526;DHT22;10421;49.142;9.232;2024-01-30T07:26:54;5.80;95.70
20526;DHT22;10421;49.142;9.232;2024-01-30T07:29:21;5.90;95.70
20526;DHT22;10421;49.142;9.232;2024-01-30T07:31:49;5.90;95.70
20526;DHT22;10421;49.142;9.232;2024-01-30T07:34:16;6.00;95.70
20526;DHT22;10421;49.142;9.232;2024-01-30T07:36:43;6.00;95.60
20526;DHT22;10421;49.142;9.232;2024-01-30T07:39:09;6.00;95.70
20526;DHT22;10421;49.142;9.232;2024-01-30T07:41:36;6.10;95.70
20526;DHT22;10421;49.142;9.232;2024-01-30T07:44:03;6.10;95.80
20526;DHT22;10421;49.142;9.232;2024-01-30T07:46:30;6.10;95.80
20526;DHT22;10421;49.142;9.232;2024-01-30T07:48:58;6.20;95.90
20526;DHT22;10421;49.142;9.232;2024-01-30T07:51:25;6.20;95.80
20526;DHT22;10421;49.142;9.232;2024-01-30T07:53:53;6.20;95.90
20526;DHT22;10421;49.142;9.232;2024-01-30T07:56:20;6.20;96.00
20526;DHT22;10421;49.142;9.232;2024-01-30T07:58:47;6.30;95.90
20526;DHT22;10421;49.142;9.232;2024-01-30T08:01:14;6.40;96.00
20526;DHT22;10421;49.142;9.232;2024-01-30T08:03:41;6.50;96.00
20526;DHT22;10421;49.142;9.232;2024-01-30T08:06:09;6.60;96.00
20526;DHT22;10421;49.142;9.232;2024-01-30T08:08:36;6.70;96.20
20526;DHT22;10421;49.142;9.232;2024-01-30T08:11:03;6.90;96.30
20526;DHT22;10421;49.142;9.232;2024-01-30T08:13:30;7.10;95.80
20526;DHT22;10421;49.142;9.232;2024-01-30T08:15:57;7.30;95.50
20526;DHT22;10421;49.142;9.232;2024-01-30T08:18:23;7.60;94.90
20526;DHT22;10421;49.142;9.232;2024-01-30T08:20:50;7.80;94.60
20526;DHT22;10421;49.142;9.232;2024-01-30T08:23:18;7.90;94.30
20526;DHT22;10421;49.142;9.232;2024-01-30T08:25:45;8.10;94.00
20526;DHT22;10421;49.142;9.232;2024-01-30T08:28:12;8.10;93.70
20526;DHT22;10421;49.142;9.232;2024-01-30T08:30:38;8.20;93.80
20526;DHT22;10421;49.142;9.232;2024-01-30T08:33:05;8.20;93.50
20526;DHT22;10421;49.142;9.232;2024-01-30T08:35:32;8.30;93.60
20526;DHT22;10421;49.142;9.232;2024-01-30T08:37:59;8.40;93.70
20526;DHT22;10421;49.142;9.232;2024-01-30T08:40:27;8.50;94.10
20526;DHT22;10421;49.142;9.232;2024-01-30T08:42:54;8.80;93.50
20526;DHT22;10421;49.142;9.232;2024-01-30T08:45:24;9.10;93.00
20526;DHT22;10421;49.142;9.232;2024-01-30T08:47:51;9.40;92.80
20526;DHT22;10421;49.142;9.232;2024-01-30T08:50:17;9.70;92.40
20526;DHT22;10421;49.142;9.232;2024-01-30T08:52:44;10.00;91.20
20526;DHT22;10421;49.142;9.232;2024-01-30T08:55:11;10.30;90.80
20526;DHT22;10421;49.142;9.232;2024-01-30T08:57:39;10.40;90.30
20526;DHT22;10421;49.142;9.232;2024-01-30T09:00:07;10.50;89.70
20526;DHT22;10421;49.142;9.232;2024-01-30T09:02:34;10.50;89.20
20526;DHT22;10421;49.142;9.232;2024-01-30T09:05:01;10.40;88.60
20526;DHT22;10421;49.142;9.232;2024-01-30T09:07:28;10.30;88.30
20526;DHT22;10421;49.142;9.232;2024-01-30T09:09:55;10.20;88.50
20526;DHT22;10421;49.142;9.232;2024-01-30T09:12:21;10.00;88.50
20526;DHT22;10421;49.142;9.232;2024-01-30T09:14:50;10.00;89.00
20526;DHT22;10421;49.142;9.232;2024-01-30T09:17:16;9.90;90.40
20526;DHT22;10421;49.142;9.232;2024-01-30T09:19:43;9.80;90.70
20526;DHT22;10421;49.142;9.232;2024-01-30T09:22:10;9.80;90.80
20526;DHT22;10421;49.142;9.232;2024-01-30T09:24:37;9.90;90.90
20526;DHT22;10421;49.142;9.232;2024-01-30T09:27:04;10.00;90.50
20526;DHT22;10421;49.142;9.232;2024-01-30T09:29:31;10.10;90.40
20526;DHT22;10421;49.142;9.232;2024-01-30T09:32:01;10.30;90.40
20526;DHT22;10421;49.142;9.232;2024-01-30T09:34:27;10.40;90.70
20526;DHT22;10421;49.142;9.232;2024-01-30T09:36:54;10.60;90.60
20526;DHT22;10421;49.142;9.232;2024-01-30T09:39:20;10.90;90.10
20526;DHT22;10421;49.142;9.232;2024-01-30T09:41:49;11.20;89.40
20526;DHT22;10421;49.142;9.232;2024-01-30T09:44:16;11.50;88.10
20526;DHT22;10421;49.142;9.232;2024-01-30T09:46:43;11.80;87.20
20526;DHT22;10421;49.142;9.232;2024-01-30T09:49:13;12.00;86.50
20526;DHT22;10421;49.142;9.232;2024-01-30T09:51:40;12.20;85.30
20526;DHT22;10421;49.142;9.232;2024-01-30T09:54:08;12.50;84.80
20526;DHT22;10421;49.142;9.232;2024-01-30T09:56:36;12.70;83.60
20526;DHT22;10421;49.142;9.232;2024-01-30T09:59:03;12.80;82.90
20526;DHT22;10421;49.142;9.232;2024-01-30T10:01:29;12.80;81.90
20526;DHT22;10421;49.142;9.232;2024-01-30T10:03:57;12.80;81.70
20526;DHT22;10421;49.142;9.232;2024-01-30T10:06:26;12.80;81.00
20526;DHT22;10421;49.142;9.232;2024-01-30T10:08:54;12.80;80.20
20526;DHT22;10421;49.142;9.232;2024-01-30T10:11:21;12.70;80.70
20526;DHT22;10421;49.142;9.232;2024-01-30T10:13:49;12.60;81.30
20526;DHT22;10421;49.142;9.232;2024-01-30T10:16:16;12.50;81.40
20526;DHT22;10421;49.142;9.232;2024-01-30T10:18:43;12.50;81.40
20526;DHT22;10421;49.142;9.232;2024-01-30T10:21:10;12.40;81.50
20526;DHT22;10421;49.142;9.232;2024-01-30T10:23:38;12.30;81.60
20526;DHT22;10421;49.142;9.232;2024-01-30T10:26:07;12.30;81.60
20526;DHT22;10421;49.142;9.232;2024-01-30T10:28:34;12.20;81.40
20526;DHT22;10421;49.142;9.232;2024-01-30T10:31:01;12.10;81.60
20526;DHT22;10421;49.142;9.232;2024-01-30T10:33:29;12.00;82.20
20526;DHT22;10421;49.142;9.232;2024-01-30T10:35:59;11.70;82.80
20526;DHT22;10421;49.142;9.232;2024-01-30T10:38:29;11.60;83.40
20526;DHT22;10421;49.142;9.232;2024-01-30T10:40:58;11.50;84.00
20526;DHT22;10421;49.142;9.232;2024-01-30T10:43:31;11.40;84.70
20526;DHT22;10421;49.142;9.232;2024-01-30T10:46:05;11.40;85.20
20526;DHT22;10421;49.142;9.232;2024-01-30T10:48:36;11.30;85.60
20526;DHT22;10421;49.142;9.232;2024-01-30T10:51:08;11.20;85.90
20526;DHT22;10421;49.142;9.232;2024-01-30T10:53:36;11.20;86.20
20526;DHT22;10421;49.142;9.232;2024-01-30T10:56:05;11.10;86.70
20526;DHT22;10421;49.142;9.232;2024-01-30T10:58:32;11.20;87.00
20526;DHT22;10421;49.142;9.232;2024-01-30T11:00:59;11.20;86.80
20526;DHT22;10421;49.142;9.232;2024-01-30T11:03:26;11.20;86.80
20526;DHT22;10421;49.142;9.232;2024-01-30T11:05:53;11.10;87.40
20526;DHT22;10421;49.142;9.232;2024-01-30T11:08:24;11.20;87.80
20526;DHT22;10421;49.142;9.232;2024-01-30T11:10:55;11.20;87.80
20526;DHT22;10421;49.142;9.232;2024-01-30T11:13:26;11.20;87.50
20526;DHT22;10421;49.142;9.232;2024-01-30T11:15:54;11.30;87.70
20526;DHT22;10421;49.142;9.232;2024-01-30T11:18:24;11.30;87.20
20526;DHT22;10421;49.142;9.232;2024-01-30T11:20:56;11.30;87.20
20526;DHT22;10421;49.142;9.232;2024-01-30T11:23:23;11.30;87.20
20526;DHT22;10421;49.142;9.232;2024-01-30T11:25:52;11.30;87.20
20526;DHT22;10421;49.142;9.232;2024-01-30T11:28:21;11.30;87.20
20526;DHT22;10421;49.142;9.232;2024-01-30T11:30:50;11.30;87.30
20526;DHT22;10421;49.142;9.232;2024-01-30T11:33:28;11.30;87.70
20526;DHT22;10421;49.142;9.232;2024-01-30T11:35:57;11.20;88.40
20526;DHT22;10421;49.142;9.232;2024-01-30T11:38:25;11.10;88.70
20526;DHT22;10421;49.142;9.232;2024-01-30T11:40:54;11.10;88.80
20526;DHT22;10421;49.142;9.232;2024-01-30T11:43:21;11.10;89.00
20526;DHT22;10421;49.142;9.232;2024-01-30T11:45:49;11.10;89.10
20526;DHT22;10421;49.142;9.232;2024-01-30T11:48:16;11.10;89.00
20526;DHT22;10421;49.142;9.232;2024-01-30T11:50:43;11.10;89.10
20526;DHT22;10421;49.142;9.232;2024-01-30T11:53:11;11.10;89.10
20526;DHT22;10421;49.142;9.232;2024-01-30T11:55:37;11.10;89.20
20526;DHT22;10421;49.142;9.232;2024-01-30T11:58:04;11.10;89.50
20526;DHT22;10421;49.142;9.232;2024-01-30T12:00:31;11.10;89.70
20526;DHT22;10421;49.142;9.232;2024-01-30T12:03:00;10.90;90.00
20526;DHT22;10421;49.142;9.232;2024-01-30T12:05:28;11.00;90.00
20526;DHT22;10421;49.142;9.232;2024-01-30T12:07:54;11.00;90.00
20526;DHT22;10421;49.142;9.232;2024-01-30T12:10:24;11.00;90.00
20526;DHT22;10421;49.142;9.232;2024-01-30T12:12:51;11.00;90.10
20526;DHT22;10421;49.142;9.232;2024-01-30T12:15:18;11.00;90.30
20526;DHT22;10421;49.142;9.232;2024-01-30T12:17:47;11.10;90.30
20526;DHT22;10421;49.142;9.232;2024-01-30T12:20:18;11.10;90.10
20526;DHT22;10421;49.142;9.232;2024-01-30T12:22:46;11.20;90.10
20526;DHT22;10421;49.142;9.232;2024-01-30T12:25:14;11.20;90.00
20526;DHT22;10421;49.142;9.232;2024-01-30T12:27:42;11.30;89.90
20526;DHT22;10421;49.142;9.232;2024-01-30T12:30:11;11.20;89.20
20526;DHT22;10421;49.142;9.232;2024-01-30T12:32:40;11.20;89.80
20526;DHT22;10421;49.142;9.232;2024-01-30T12:35:09;11.20;89.80
20526;DHT22;10421;49.142;9.232;2024-01-30T12:37:37;11.20;89.70
20526;DHT22;10421;49.142;9.232;2024-01-30T12:40:05;11.20;90.00
20526;DHT22;10421;49.142;9.232;2024-01-30T12:42:32;11.20;89.90
20526;DHT22;10421;49.142;9.232;2024-01-30T12:44:59;11.30;90.00
20526;DHT22;10421;49.142;9.232;2024-01-30T12:47:26;11.40;90.00
20526;DHT22;10421;49.142;9.232;2024-01-30T12:49:53;11.40;89.80
20526;DHT22;10421;49.142;9.232;2024-01-30T12:52:21;11.40;89.60
20526;DHT22;10421;49.142;9.232;2024-01-30T12:54:50;11.50;89.50
20526;DHT22;10421;49.142;9.232;2024-01-30T12:57:17;11.50;89.30
20526;DHT22;10421;49.142;9.232;2024-01-30T12:59:45;11.60;89.20
20526;DHT22;10421;49.142;9.232;2024-01-30T13:02:12;11.60;89.10
20526;DHT22;10421;49.142;9.232;2024-01-30T13:04:39;11.60;89.10
20526;DHT22;10421;49.142;9.232;2024-01-30T13:07:06;11.70;89.10
20526;DHT22;10421;49.142;9.232;2024-01-30T13:09:33;11.70;88.90
20526;DHT22;10421;49.142;9.232;2024-01-30T13:12:01;11.80;89.60
20526;DHT22;10421;49.142;9.232;2024-01-30T13:14:28;11.80;88.80
20526;DHT22;10421;49.142;9.232;2024-01-30T13:16:55;11.90;88.70
20526;DHT22;10421;49.142;9.232;2024-01-30T13:19:22;11.90;88.40
20526;DHT22;10421;49.142;9.232;2024-01-30T13:21:48;11.90;88.50
20526;DHT22;10421;49.142;9.232;2024-01-30T13:24:15;11.90;88.70
20526;DHT22;10421;49.142;9.232;2024-01-30T13:26:42;12.00;89.00
20526;DHT22;10421;49.142;9.232;2024-01-30T13:29:11;11.90;89.00
20526;DHT22;10421;49.142;9.232;2024-01-30T13:31:38;12.00;90.00
20526;DHT22;10421;49.142;9.232;2024-01-30T13:34:05;12.00;89.40
20526;DHT22;10421;49.142;9.232;2024-01-30T13:36:32;12.00;89.40
20526;DHT22;10421;49.142;9.232;2024-01-30T13:38:59;12.00;89.30
20526;DHT22;10421;49.142;9.232;2024-01-30T13:41:26;12.10;89.40
20526;DHT22;10421;49.142;9.232;2024-01-30T13:43:53;12.00;89.40
20526;DHT22;10421;49.142;9.232;2024-01-30T13:46:21;11.90;89.70
20526;DHT22;10421;49.142;9.232;2024-01-30T13:48:47;12.00;89.90
20526;DHT22;10421;49.142;9.232;2024-01-30T13:51:14;12.00;89.70
20526;DHT22;10421;49.142;9.232;2024-01-30T13:53:42;12.00;89.40
20526;DHT22;10421;49.142;9.232;2024-01-30T13:56:09;12.00;89.20
20526;DHT22;10421;49.142;9.232;2024-01-30T13:58:36;12.10;89.30
20526;DHT22;10421;49.142;9.232;2024-01-30T14:01:03;12.10;89.30
20526;DHT22;10421;49.142;9.232;2024-01-30T14:03:31;12.10;88.90
20526;DHT22;10421;49.142;9.232;2024-01-30T14:05:58;12.10;88.80
20526;DHT22;10421;49.142;9.232;2024-01-30T14:08:25;12.10;88.90
20526;DHT22;10421;49.142;9.232;2024-01-30T14:10:53;12.10;88.70
20526;DHT22;10421;49.142;9.232;2024-01-30T14:13:20;12.10;88.60
20526;DHT22;10421;49.142;9.232;2024-01-30T14:15:48;12.10;88.50
20526;DHT22;10421;49.142;9.232;2024-01-30T14:18:14;12.10;88.50
20526;DHT22;10421;49.142;9.232;2024-01-30T14:20:43;12.10;88.60
20526;DHT22;10421;49.142;9.232;2024-01-30T14:23:10;12.10;88.70
20526;DHT22;10421;49.142;9.232;2024-01-30T14:25:37;12.00;88.70
20526;DHT22;10421;49.142;9.232;2024-01-30T14:28:04;12.00;88.80
20526;DHT22;10421;49.142;9.232;2024-01-30T14:30:31;12.00;88.90
20526;DHT22;10421;49.142;9.232;2024-01-30T14:32:57;12.00;88.90
20526;DHT22;10421;49.142;9.232;2024-01-30T14:35:24;12.00;88.90
20526;DHT22;10421;49.142;9.232;2024-01-30T14:37:52;12.10;88.80
20526;DHT22;10421;49.142;9.232;2024-01-30T14:40:19;12.00;88.50
20526;DHT22;10421;49.142;9.232;2024-01-30T14:42:46;12.00;89.40
20526;DHT22;10421;49.142;9.232;2024-01-30T14:45:13;11.90;89.20
20526;DHT22;10421;49.142;9.232;2024-01-30T14:47:41;11.90;89.30
20526;DHT22;10421;49.142;9.232;2024-01-30T14:50:08;11.90;89.40
20526;DHT22;10421;49.142;9.232;2024-01-30T14:52:35;12.00;89.60
20526;DHT22;10421;49.142;9.232;2024-01-30T14:55:04;12.00;89.60
20526;DHT22;10421;49.142;9.232;2024-01-30T14:57:31;11.90;89.60
20526;DHT22;10421;49.142;9.232;2024-01-30T14:59:58;11.90;89.70
20526;DHT22;10421;49.142;9.232;2024-01-30T15:02:24;12.00;89.70
20526;DHT22;10421;49.142;9.232;2024-01-30T15:04:51;11.90;90.10
20526;DHT22;10421;49.142;9.232;2024-01-30T15:07:18;11.90;90.10
20526;DHT22;10421;49.142;9.232;2024-01-30T15:09:45;11.90;90.20
20526;DHT22;10421;49.142;9.232;2024-01-30T15:12:13;11.80;90.70
20526;DHT22;10421;49.142;9.232;2024-01-30T15:14:40;11.80;90.90
20526;DHT22;10421;49.142;9.232;2024-01-30T15:17:11;11.90;90.80
20526;DHT22;10421;49.142;9.232;2024-01-30T15:19:38;11.80;90.80
20526;DHT22;10421;49.142;9.232;2024-01-30T15:22:05;11.80;90.60
20526;DHT22;10421;49.142;9.232;2024-01-30T15:24:32;11.90;90.70
20526;DHT22;10421;49.142;9.232;2024-01-30T15:26:59;11.90;90.80
20526;DHT22;10421;49.142;9.232;2024-01-30T15:29:27;11.80;91.00
20526;DHT22;10421;49.142;9.232;2024-01-30T15:31:54;11.80;91.00
20526;DHT22;10421;49.142;9.232;2024-01-30T15:34:21;11.70;91.30
20526;DHT22;10421;49.142;9.232;2024-01-30T15:36:47;11.70;91.50
20526;DHT22;10421;49.142;9.232;2024-01-30T15:39:14;11.70;91.70